createdAt,value
2019-02-27T00:03:17.736Z,211.77
2019-02-27T00:05:51.422Z,181.17
2019-02-27T00:08:44.526Z,165.70
2019-02-27T00:11:18.605Z,202.97
2019-02-27T00:13:53.357Z,210.27
2019-02-27T00:16:28.388Z,210.93
2019-02-27T00:19:02.716Z,208.47
2019-02-27T00:21:36.953Z,206.97
2019-02-27T00:24:10.995Z,203.77
2019-02-27T00:26:45.538Z,220.57
2019-02-27T00:29:20.213Z,208.57
2019-02-27T00:31:56.087Z,218.83
2019-02-27T00:34:32.820Z,203.80
2019-02-27T00:37:05.527Z,210.50
2019-02-27T00:39:42.835Z,210.23
2019-02-27T00:42:19.593Z,210.53
2019-02-27T00:44:51.718Z,201.33
2019-02-27T00:47:25.833Z,206.87
2019-02-27T00:50:05.759Z,216.03
2019-02-27T00:52:36.809Z,205.27
2019-02-27T00:55:14.158Z,218.30
2019-02-27T00:57:47.686Z,214.90
2019-02-27T01:00:22.582Z,208.90
2019-02-27T01:02:59.427Z,218.90
2019-02-27T01:05:33.782Z,213.17
2019-02-27T01:08:08.716Z,220.33
2019-02-27T01:10:45.263Z,226.03
2019-02-27T01:13:18.273Z,220.37
2019-02-27T01:15:52.849Z,227.73
2019-02-27T01:18:30.354Z,227.40
2019-02-27T01:21:02.048Z,232.67
2019-02-27T01:23:37.457Z,258.50
2019-02-27T01:26:11.434Z,237.57
2019-02-27T01:28:45.590Z,245.83
2019-02-27T01:31:21.977Z,248.37
2019-02-27T01:33:55.176Z,261.37
2019-02-27T01:36:29.231Z,247.70
2019-02-27T01:39:03.371Z,260.93
2019-02-27T01:41:37.276Z,242.60
2019-02-27T01:44:14.235Z,268.25
2019-02-27T01:46:48.023Z,256.23
2019-02-27T01:49:22.010Z,256.33
2019-02-27T01:51:56.128Z,264.37
2019-02-27T01:54:30.271Z,257.60
2019-02-27T01:57:04.869Z,264.83
2019-02-27T01:59:39.421Z,257.30
2019-02-27T02:02:14.446Z,261.53
2019-02-27T02:04:48.274Z,274.43
2019-02-27T02:07:26.450Z,261.97
2019-02-27T02:09:59.436Z,251.50
2019-02-27T02:12:34.276Z,267.68
2019-02-27T02:15:16.986Z,272.73
2019-02-27T02:18:28.992Z,242.97
2019-02-27T02:21:23.687Z,242.32
2019-02-27T02:24:28.232Z,226.63
2019-02-27T02:27:12.388Z,249.67
2019-02-27T02:30:10.825Z,250.10
2019-02-27T02:33:15.381Z,268.40
2019-02-27T02:36:09.652Z,242.73
2019-02-27T02:39:17.892Z,250.37
2019-02-27T02:41:53.018Z,258.50
2019-02-27T02:44:35.728Z,261.57
2019-02-27T02:47:31.681Z,255.93
2019-02-27T02:50:22.215Z,267.03
2019-02-27T02:53:24.827Z,271.85
2019-02-27T02:56:17.406Z,280.10
2019-02-27T02:59:12.783Z,264.67
2019-02-27T03:01:54.796Z,267.67
2019-02-27T03:05:03.166Z,283.33
2019-02-27T03:07:45.633Z,265.83
2019-02-27T03:10:29.917Z,278.90
2019-02-27T03:13:07.294Z,284.97
2019-02-27T03:15:46.623Z,305.30
2019-02-27T03:18:34.729Z,308.27
2019-02-27T03:21:36.398Z,307.60
2019-02-27T03:24:29.423Z,309.00
2019-02-27T03:27:14.401Z,313.05
2019-02-27T03:30:06.153Z,308.67
2019-02-27T03:33:23.488Z,318.33
2019-02-27T03:35:59.901Z,310.30
2019-02-27T03:38:47.582Z,325.57
2019-02-27T03:41:35.500Z,313.47
2019-02-27T03:47:58.478Z,329.93
2019-02-27T03:52:09.846Z,337.27
2019-02-27T03:53:55.642Z,326.73
2019-02-27T03:56:54.282Z,335.20
2019-02-27T03:59:51.771Z,339.60
2019-02-27T04:02:33.514Z,337.13
2019-02-27T04:05:33.608Z,343.43
2019-02-27T04:08:15.824Z,348.57
2019-02-27T04:10:49.465Z,350.93
2019-02-27T04:13:27.767Z,355.33
2019-02-27T04:15:59.247Z,358.97
2019-02-27T04:18:29.611Z,354.80
2019-02-27T04:21:03.077Z,381.77
2019-02-27T04:23:40.092Z,387.17
2019-02-27T04:26:15.464Z,393.15
2019-02-27T04:28:47.925Z,396.23
2019-02-27T04:31:21.825Z,382.00
2019-02-27T04:33:59.527Z,408.83
2019-02-27T04:36:30.850Z,390.90
2019-02-27T04:39:04.604Z,403.97
2019-02-27T04:41:38.244Z,396.93
2019-02-27T04:44:11.968Z,402.67
2019-02-27T04:46:46.995Z,400.43
2019-02-27T04:49:20.375Z,368.00
2019-02-27T04:51:53.823Z,387.57
2019-02-27T04:54:27.453Z,369.67
2019-02-27T04:57:01.075Z,380.60
2019-02-27T04:59:34.885Z,382.27
2019-02-27T05:02:08.593Z,367.20
2019-02-27T05:04:43.474Z,384.43
2019-02-27T05:07:20.117Z,376.93
2019-02-27T05:09:52.866Z,325.37
2019-02-27T05:12:27.855Z,312.60
2019-02-27T05:15:04.075Z,328.25
2019-02-27T05:17:37.502Z,359.27
2019-02-27T05:20:12.624Z,362.53
2019-02-27T05:22:46.498Z,376.77
2019-02-27T05:28:15.545Z,339.17
2019-02-27T05:30:49.260Z,317.57
2019-02-27T05:33:23.617Z,338.50
2019-02-27T05:35:57.779Z,335.43
2019-02-27T05:38:32.072Z,378.40
2019-02-27T05:41:05.839Z,367.35
2019-02-27T05:43:41.343Z,380.20
2019-02-27T05:46:15.187Z,380.57
2019-02-27T05:48:50.918Z,380.80
2019-02-27T05:51:24.911Z,371.53
2019-02-27T05:53:59.592Z,352.83
2019-02-27T05:56:33.821Z,360.37
2019-02-27T05:59:08.113Z,362.95
2019-02-27T06:01:42.558Z,374.57
2019-02-27T06:04:35.963Z,349.73
2019-02-27T06:07:10.028Z,332.60
2019-02-27T06:09:44.953Z,333.40
2019-02-27T06:12:18.647Z,332.07
2019-02-27T06:14:54.781Z,310.33
2019-02-27T06:17:27.570Z,302.60
2019-02-27T06:20:02.606Z,323.53
2019-02-27T06:22:36.295Z,328.27
2019-02-27T06:25:24.565Z,318.83
2019-02-27T06:27:58.384Z,323.50
2019-02-27T06:30:32.113Z,322.17
2019-02-27T06:33:05.905Z,343.00
2019-02-27T06:35:39.749Z,318.17
2019-02-27T06:38:13.755Z,331.00
2019-02-27T06:40:47.467Z,342.70
2019-02-27T06:43:21.129Z,339.97
2019-02-27T06:45:55.005Z,340.07
2019-02-27T06:48:28.675Z,331.97
2019-02-27T06:51:02.244Z,335.30
2019-02-27T06:53:36.019Z,309.93
2019-02-27T06:56:10.049Z,291.20
2019-02-27T06:58:44.696Z,296.35
2019-02-27T07:01:20.010Z,306.33
2019-02-27T07:04:13.355Z,295.17
2019-02-27T07:06:47.380Z,270.53
2019-02-27T07:09:22.726Z,279.60
2019-02-27T07:11:57.071Z,284.80
2019-02-27T07:14:31.045Z,276.37
2019-02-27T07:17:06.810Z,324.97
2019-02-27T07:19:42.813Z,329.77
2019-02-27T07:22:17.643Z,313.00
2019-02-27T07:24:53.497Z,330.03
2019-02-27T07:27:31.951Z,336.23
2019-02-27T07:30:09.839Z,314.03
2019-02-27T07:32:46.407Z,315.87
2019-02-27T07:35:25.600Z,307.53
2019-02-27T07:37:56.751Z,318.00
2019-02-27T07:40:31.838Z,312.40
2019-02-27T07:43:06.630Z,316.30
2019-02-27T07:45:45.427Z,317.35
2019-02-27T07:48:19.922Z,311.97
2019-02-27T07:50:57.546Z,301.53
2019-02-27T07:53:32.540Z,305.83
2019-02-27T07:56:25.957Z,330.17
2019-02-27T07:59:02.793Z,336.93
2019-02-27T08:01:43.464Z,344.53
2019-02-27T08:04:13.289Z,336.87
2019-02-27T08:06:50.222Z,331.37
2019-02-27T08:09:29.927Z,336.33
2019-02-27T08:12:06.285Z,305.70
2019-02-27T08:15:01.670Z,295.67
2019-02-27T08:17:38.708Z,291.57
2019-02-27T08:20:20.104Z,303.92
2019-02-27T08:22:55.208Z,291.87
2019-02-27T08:25:31.867Z,296.57
2019-02-27T08:28:09.936Z,297.67
2019-02-27T08:30:45.618Z,290.77
2019-02-27T08:33:26.266Z,290.90
2019-02-27T08:36:03.284Z,290.03
2019-02-27T08:38:44.030Z,282.37
2019-02-27T08:41:20.637Z,279.80
2019-02-27T08:43:55.086Z,285.73
2019-02-27T08:46:30.635Z,291.73
2019-02-27T08:49:04.824Z,283.50
2019-02-27T08:51:39.807Z,286.77
2019-02-27T08:54:16.085Z,293.80
2019-02-27T08:56:50.254Z,280.37
2019-02-27T08:59:25.867Z,290.63
2019-02-27T09:02:01.143Z,285.00
2019-02-27T09:04:35.368Z,287.08
2019-02-27T09:07:11.040Z,294.53
2019-02-27T09:09:45.319Z,304.53
2019-02-27T09:12:19.620Z,306.60
2019-02-27T09:14:55.908Z,294.67
2019-02-27T09:17:29.943Z,299.83
2019-02-27T09:20:04.131Z,312.67
2019-02-27T09:22:38.919Z,309.40
2019-02-27T09:25:15.090Z,311.57
2019-02-27T09:27:51.386Z,320.13
2019-02-27T09:30:30.027Z,306.87
2019-02-27T09:33:04.611Z,321.93
2019-02-27T09:35:38.973Z,328.40
2019-02-27T09:38:13.940Z,315.03
2019-02-27T09:40:50.149Z,332.10
2019-02-27T09:43:27.364Z,345.43
2019-02-27T09:46:03.259Z,352.70
2019-02-27T09:48:39.087Z,353.17
2019-02-27T09:51:16.035Z,359.17
2019-02-27T09:53:51.235Z,350.80
2019-02-27T09:56:29.083Z,349.80
2019-02-27T09:59:05.377Z,344.37
2019-02-27T10:01:40.553Z,352.87
2019-02-27T10:04:17.965Z,348.17
2019-02-27T10:06:54.694Z,354.73
2019-02-27T10:09:29.918Z,343.53
2019-02-27T10:12:10.877Z,350.73
2019-02-27T10:14:47.942Z,353.15
2019-02-27T10:17:43.595Z,349.87
2019-02-27T10:20:23.641Z,331.37
2019-02-27T10:23:01.946Z,322.63
2019-02-27T10:25:36.887Z,302.10
2019-02-27T10:28:13.173Z,300.70
2019-02-27T10:30:49.962Z,303.20
2019-02-27T10:33:28.771Z,287.60
2019-02-27T10:36:10.753Z,299.83
2019-02-27T10:38:49.331Z,299.10
2019-02-27T10:41:30.207Z,273.47
2019-02-27T10:44:18.497Z,283.87
2019-02-27T10:47:05.694Z,281.53
2019-02-27T10:49:41.739Z,274.70
2019-02-27T10:52:30.340Z,286.83
2019-02-27T10:55:06.358Z,276.47
2019-02-27T10:57:44.165Z,281.00
2019-02-27T11:00:32.021Z,274.93
2019-02-27T11:03:13.607Z,277.43
2019-02-27T11:05:52.402Z,285.00
2019-02-27T11:08:28.889Z,282.77
2019-02-27T11:11:02.155Z,286.43
2019-02-27T11:13:37.031Z,287.00
2019-02-27T11:16:15.401Z,288.97
2019-02-27T11:18:51.128Z,288.13
2019-02-27T11:21:26.193Z,275.37
2019-02-27T11:24:02.154Z,283.90
2019-02-27T11:26:38.619Z,275.50
2019-02-27T11:29:23.527Z,276.03
2019-02-27T11:31:57.481Z,281.57
2019-02-27T11:34:33.589Z,267.05
2019-02-27T11:37:13.162Z,267.63
2019-02-27T11:39:53.222Z,274.60
2019-02-27T11:42:32.081Z,267.30
2019-02-27T11:45:10.591Z,263.23
2019-02-27T11:47:48.174Z,271.83
2019-02-27T11:50:48.540Z,267.73
2019-02-27T11:53:24.966Z,283.77
2019-02-27T11:56:02.999Z,274.97
2019-02-27T11:58:45.194Z,274.10
2019-02-27T12:01:22.747Z,279.30
2019-02-27T12:04:03.591Z,273.43
2019-02-27T12:06:43.910Z,288.70
2019-02-27T12:09:27.843Z,279.43
2019-02-27T12:12:10.456Z,283.63
2019-02-27T12:14:51.151Z,284.30
2019-02-27T12:17:30.887Z,283.67
2019-02-27T12:20:34.574Z,281.70
2019-02-27T12:23:13.663Z,284.43
2019-02-27T12:26:02.442Z,292.50
2019-02-27T12:28:44.430Z,272.88
2019-02-27T12:31:22.817Z,293.97
2019-02-27T12:34:03.285Z,282.47
2019-02-27T12:36:44.235Z,285.77
2019-02-27T12:39:21.797Z,294.63
2019-02-27T12:42:00.114Z,305.13
2019-02-27T12:44:44.719Z,310.43
2019-02-27T12:47:22.508Z,308.87
2019-02-27T12:53:20.733Z,315.67
2019-02-27T13:02:44.282Z,320.73
2019-02-27T13:08:32.997Z,318.00
2019-02-27T13:11:14.900Z,320.30
2019-02-27T13:13:50.089Z,318.23
2019-02-27T13:16:26.810Z,331.63
2019-02-27T13:19:06.417Z,317.73
2019-02-27T13:21:42.897Z,306.80
2019-02-27T13:24:23.365Z,308.80
2019-02-27T13:26:59.108Z,310.10
2019-02-27T13:29:34.852Z,318.03
2019-02-27T13:32:11.037Z,307.53
2019-02-27T13:34:48.247Z,317.83
2019-02-27T13:37:24.332Z,327.27
2019-02-27T13:40:01.627Z,312.07
2019-02-27T13:42:38.093Z,313.97
2019-02-27T13:45:32.006Z,309.90
2019-02-27T13:48:08.716Z,320.23
2019-02-27T13:50:44.897Z,313.37
2019-02-27T13:53:25.815Z,312.27
2019-02-27T13:55:58.508Z,316.48
2019-02-27T13:58:38.392Z,311.40
2019-02-27T14:01:14.198Z,300.10
2019-02-27T14:03:50.385Z,321.93
2019-02-27T14:06:30.787Z,326.17
2019-02-27T14:09:07.015Z,326.62
2019-02-27T14:11:43.477Z,326.17
2019-02-27T14:14:20.128Z,309.73
2019-02-27T14:17:00.025Z,318.12
2019-02-27T14:19:36.995Z,319.27
2019-02-27T14:22:13.664Z,305.10
2019-02-27T14:24:54.783Z,308.27
2019-02-27T14:27:28.234Z,315.17
2019-02-27T14:30:03.760Z,313.83
2019-02-27T14:32:41.045Z,317.80
2019-02-27T14:35:17.680Z,325.00
2019-02-27T14:37:52.593Z,304.17
2019-02-27T14:40:28.099Z,316.93
2019-02-27T14:43:02.677Z,324.80
2019-02-27T14:45:40.606Z,313.90
2019-02-27T14:48:15.023Z,303.60
2019-02-27T14:50:52.130Z,311.63
2019-02-27T14:53:26.507Z,318.60
2019-02-27T14:56:01.116Z,302.80
2019-02-27T14:58:36.954Z,306.80
2019-02-27T15:01:14.444Z,311.87
2019-02-27T15:03:49.526Z,305.74
2019-02-27T15:06:26.022Z,301.05
2019-02-27T15:09:03.641Z,309.23
2019-02-27T15:11:37.339Z,315.82
2019-02-27T15:14:11.979Z,311.13
2019-02-27T15:16:49.042Z,300.87
2019-02-27T15:19:21.352Z,318.43
2019-02-27T15:22:00.757Z,313.43
2019-02-27T15:24:34.954Z,304.75
2019-02-27T15:27:09.868Z,324.03
2019-02-27T15:29:44.649Z,309.83
2019-02-27T15:32:20.633Z,308.87
2019-02-27T15:34:54.990Z,317.53
2019-02-27T15:37:29.201Z,313.90
2019-02-27T15:40:05.183Z,308.40
2019-02-27T15:42:42.685Z,309.87
2019-02-27T15:45:22.123Z,307.17
2019-02-27T15:48:15.677Z,308.23
2019-02-27T15:50:51.009Z,301.92
2019-02-27T15:53:25.379Z,312.02
2019-02-27T15:55:59.928Z,318.77
2019-02-27T15:58:36.048Z,296.60
2019-02-27T16:01:11.644Z,305.27
2019-02-27T16:03:47.450Z,313.73
2019-02-27T16:06:21.969Z,311.87
2019-02-27T16:08:58.382Z,303.00
2019-02-27T16:11:32.585Z,306.97
2019-02-27T16:14:10.237Z,296.97
2019-02-27T16:16:43.775Z,298.43
2019-02-27T16:19:18.054Z,299.12
2019-02-27T16:21:56.984Z,295.10
2019-02-27T16:24:28.945Z,310.13
2019-02-27T16:27:03.259Z,296.23
2019-02-27T16:29:38.838Z,300.33
2019-02-27T16:32:14.661Z,295.70
2019-02-27T16:34:50.786Z,302.63
2019-02-27T16:37:25.026Z,312.90
2019-02-27T16:40:00.734Z,300.95
2019-02-27T16:42:36.394Z,315.03
2019-02-27T16:45:15.115Z,302.37
2019-02-27T16:47:49.874Z,300.95
2019-02-27T16:50:30.728Z,293.17
2019-02-27T16:53:04.926Z,306.83
2019-02-27T16:55:58.398Z,295.43
2019-02-27T16:58:33.835Z,293.30
2019-02-27T17:01:11.336Z,291.37
2019-02-27T17:03:52.534Z,275.63
2019-02-27T17:06:22.980Z,291.75
2019-02-27T17:08:58.609Z,293.70
2019-02-27T17:11:33.196Z,284.73
2019-02-27T17:14:07.531Z,296.37
2019-02-27T17:16:44.850Z,285.63
2019-02-27T17:19:19.867Z,285.33
2019-02-27T17:21:58.851Z,282.13
2019-02-27T17:24:33.669Z,274.60
2019-02-27T17:27:12.587Z,282.17
2019-02-27T17:29:43.219Z,289.07
2019-02-27T17:32:17.465Z,271.27
2019-02-27T17:34:51.694Z,278.87
2019-02-27T17:37:25.948Z,271.68
2019-02-27T17:40:02.353Z,281.90
2019-02-27T17:42:35.295Z,270.20
2019-02-27T17:45:13.078Z,275.20
2019-02-27T17:47:47.555Z,296.37
2019-02-27T17:50:21.818Z,278.97
2019-02-27T17:52:56.267Z,272.05
2019-02-27T17:55:30.401Z,267.77
2019-02-27T17:58:09.271Z,280.23
2019-02-27T18:00:43.708Z,283.93
2019-02-27T18:03:19.217Z,281.33
2019-02-27T18:05:53.401Z,279.50
2019-02-27T18:08:27.711Z,272.97
2019-02-27T18:11:03.401Z,270.33
2019-02-27T18:13:37.579Z,271.27
2019-02-27T18:16:11.751Z,276.82
2019-02-27T18:18:45.828Z,275.47
2019-02-27T18:21:19.928Z,279.87
2019-02-27T18:23:55.371Z,282.23
2019-02-27T18:26:30.489Z,295.50
2019-02-27T18:29:07.687Z,297.23
2019-02-27T18:31:42.806Z,273.77
2019-02-27T18:34:16.967Z,285.67
2019-02-27T18:36:51.970Z,281.32
2019-02-27T18:39:27.851Z,276.75
2019-02-27T18:42:02.255Z,286.33
2019-02-27T18:44:40.650Z,292.00
2019-02-27T18:47:15.792Z,287.40
2019-02-27T18:49:52.336Z,286.73
2019-02-27T18:52:25.244Z,274.90
2019-02-27T18:54:59.355Z,284.47
2019-02-27T18:57:34.934Z,272.13
2019-02-27T19:00:11.173Z,274.40
2019-02-27T19:02:45.515Z,276.63
2019-02-27T19:05:19.738Z,278.73
2019-02-27T19:07:54.834Z,282.77
2019-02-27T19:10:28.953Z,279.57
2019-02-27T19:13:03.071Z,301.80
2019-02-27T19:15:37.353Z,288.77
2019-02-27T19:18:11.492Z,283.03
2019-02-27T19:20:50.340Z,289.43
2019-02-27T19:23:25.675Z,296.97
2019-02-27T19:25:59.377Z,290.43
2019-02-27T19:28:33.531Z,291.93
2019-02-27T19:31:07.931Z,290.33
2019-02-27T19:33:42.205Z,298.07
2019-02-27T19:36:19.122Z,293.17
2019-02-27T19:38:53.893Z,295.07
2019-02-27T19:41:28.141Z,295.50
2019-02-27T19:44:02.288Z,286.00
2019-02-27T19:46:38.431Z,290.10
2019-02-27T19:49:12.666Z,293.27
2019-02-27T19:51:46.911Z,291.30
2019-02-27T19:54:22.562Z,294.00
2019-02-27T19:56:56.753Z,293.82
2019-02-27T19:59:31.039Z,279.87
2019-02-27T20:02:06.596Z,285.40
2019-02-27T20:04:43.664Z,282.63
2019-02-27T20:07:16.277Z,281.53
2019-02-27T20:09:51.367Z,296.65
2019-02-27T20:12:25.520Z,291.30
2019-02-27T20:15:00.233Z,293.43
2019-02-27T20:17:36.019Z,292.25
2019-02-27T20:20:16.936Z,303.13
2019-02-27T20:22:54.393Z,294.27
2019-02-27T20:25:32.909Z,299.03
2019-02-27T20:28:07.276Z,295.17
2019-02-27T20:30:41.702Z,273.37
2019-02-27T20:33:16.243Z,284.67
2019-02-27T20:35:52.268Z,300.57
2019-02-27T20:38:27.069Z,282.37
2019-02-27T20:41:05.782Z,290.00
2019-02-27T20:43:38.027Z,283.63
2019-02-27T20:46:14.738Z,268.83
2019-02-27T20:48:47.484Z,290.40
2019-02-27T20:51:21.417Z,275.03
2019-02-27T20:53:57.380Z,286.70
2019-02-27T20:56:36.005Z,283.27
2019-02-27T20:59:08.368Z,283.83
2019-02-27T21:04:25.459Z,278.17
2019-02-27T21:06:59.549Z,278.23
2019-02-27T21:09:34.938Z,280.57
2019-02-27T21:12:09.109Z,270.17
2019-02-27T21:14:43.262Z,272.00
2019-02-27T21:17:20.873Z,267.47
2019-02-27T21:19:54.051Z,256.07
2019-02-27T21:22:29.594Z,286.20
2019-02-27T21:25:03.677Z,269.73
2019-02-27T21:27:37.844Z,285.60
2019-02-27T21:30:22.425Z,272.83
2019-02-27T21:32:57.866Z,271.27
2019-02-27T21:35:46.596Z,276.73
2019-02-27T21:38:20.639Z,271.27
2019-02-27T21:40:54.764Z,264.30
2019-02-27T21:43:28.847Z,273.73
2019-02-27T21:46:03.047Z,259.43
2019-02-27T21:48:58.635Z,268.23
2019-02-27T21:51:33.231Z,254.20
2019-02-27T21:54:08.971Z,266.50
2019-02-27T21:56:43.303Z,260.93
2019-02-27T21:59:17.364Z,273.13
2019-02-27T22:01:53.332Z,273.27
2019-02-27T22:04:29.075Z,263.10
2019-02-27T22:07:04.526Z,266.97
2019-02-27T22:09:40.328Z,268.50
2019-02-27T22:12:14.425Z,266.70
2019-02-27T22:14:49.222Z,269.80
2019-02-27T22:17:23.472Z,255.37
2019-02-27T22:19:59.155Z,249.30
2019-02-27T22:22:41.357Z,257.40
2019-02-27T22:25:16.620Z,258.50
2019-02-27T22:27:50.905Z,255.57
2019-02-27T22:30:25.402Z,250.30
2019-02-27T22:33:01.589Z,255.10
2019-02-27T22:35:37.849Z,260.57
2019-02-27T22:38:11.196Z,257.87
2019-02-27T22:40:45.351Z,269.70
2019-02-27T22:43:21.987Z,254.57
2019-02-27T22:45:56.438Z,264.37
2019-02-27T22:48:30.534Z,257.83
2019-02-27T22:51:05.657Z,259.15
2019-02-27T22:53:39.727Z,246.13
2019-02-27T22:56:16.841Z,246.37
2019-02-27T22:58:52.254Z,248.93
2019-02-27T23:01:28.144Z,255.27
2019-02-27T23:04:02.633Z,260.80
2019-02-27T23:06:37.236Z,258.07
2019-02-27T23:09:14.081Z,259.20
2019-02-27T23:11:48.382Z,269.50
2019-02-27T23:14:22.716Z,256.32
2019-02-27T23:17:00.596Z,254.68
2019-02-27T23:19:33.459Z,251.70
2019-02-27T23:22:07.730Z,247.80
2019-02-27T23:24:43.935Z,271.52
2019-02-27T23:27:18.879Z,268.02
2019-02-27T23:29:53.302Z,255.23
2019-02-27T23:32:28.655Z,257.73
2019-02-27T23:35:02.686Z,237.90
2019-02-27T23:37:36.887Z,248.80
2019-02-27T23:40:16.886Z,251.97
2019-02-27T23:42:46.622Z,237.97
2019-02-27T23:45:24.034Z,235.87
2019-02-27T23:47:59.218Z,238.90
2019-02-27T23:50:44.660Z,229.80
2019-02-27T23:53:19.197Z,247.80
2019-02-27T23:55:55.556Z,235.23
2019-02-27T23:58:37.097Z,262.77
